Time;durP1;ratioP1;P1;durP2;ratioP2;P2;SDS_P1;SDS_P2;PMS_P1;PMS_P2;Temp;Humidity;BMP_temperature;BMP_pressure;BME280_temperature;BME280_humidity;BME280_pressure;Samples;Min_cycle;Max_cycle;Signal;HPM_P1;HPM_P2
2022/05/22 00:00:09;;;;;;;7.28;5.53;;;;;;;;;;5104426;27;20051;-71
2022/05/22 00:02:35;;;;;;;7.88;5.78;;;;;;;;;;5105706;27;20131;-70
2022/05/22 00:05:01;;;;;;;9.95;6.15;;;;;;;;;;5103619;27;20028;-71
2022/05/22 00:07:28;;;;;;;10.75;7.50;;;;;;;;;;5104074;27;20110;-70
2022/05/22 00:09:54;;;;;;;19.95;9.65;;;;;;;;;;5100327;27;20397;-69
2022/05/22 00:12:20;;;;;;;13.80;5.90;;;;;;;;;;5100453;27;20516;-69
2022/05/22 00:14:46;;;;;;;14.23;6.50;;;;;;;;;;5105916;27;20067;-69
2022/05/22 00:17:13;;;;;;;19.48;7.85;;;;;;;;;;5105570;27;20032;-70
2022/05/22 00:19:39;;;;;;;11.20;6.28;;;;;;;;;;5103541;27;20028;-70
2022/05/22 00:22:06;;;;;;;11.63;6.18;;;;;;;;;;5106549;27;20034;-70
2022/05/22 00:24:32;;;;;;;15.15;6.72;;;;;;;;;;5108745;27;20069;-70
2022/05/22 00:27:00;;;;;;;9.18;6.10;;;;;;;;;;5108594;28;20053;-70
2022/05/22 00:29:26;;;;;;;11.65;7.03;;;;;;;;;;5110476;28;20042;-69
2022/05/22 00:31:52;;;;;;;8.82;5.90;;;;;;;;;;5110826;28;20039;-70
2022/05/22 00:34:18;;;;;;;13.55;6.47;;;;;;;;;;5119689;27;20039;-70
2022/05/22 00:36:45;;;;;;;9.85;6.47;;;;;;;;;;5104892;28;20164;-70
2022/05/22 00:39:11;;;;;;;14.88;6.07;;;;;;;;;;5100310;27;20043;-69
2022/05/22 00:41:38;;;;;;;10.35;6.55;;;;;;;;;;5112127;27;20086;-69
2022/05/22 00:44:05;;;;;;;8.70;5.88;;;;;;;;;;5112718;27;20031;-69
2022/05/22 00:46:33;;;;;;;9.23;5.78;;;;;;;;;;5110432;28;20131;-70
2022/05/22 00:49:02;;;;;;;10.88;5.68;;;;;;;;;;5110070;28;20062;-70
2022/05/22 00:51:34;;;;;;;11.40;5.90;;;;;;;;;;5098791;28;20123;-70
2022/05/22 00:54:03;;;;;;;7.90;5.28;;;;;;;;;;5120728;27;20397;-70
2022/05/22 00:56:35;;;;;;;15.38;5.93;;;;;;;;;;5105592;28;20032;-70
2022/05/22 00:59:02;;;;;;;8.65;6.05;;;;;;;;;;5111143;28;20047;-69
2022/05/22 01:01:28;;;;;;;10.50;6.55;;;;;;;;;;5104707;28;20096;-68
2022/05/22 01:03:55;;;;;;;9.70;6.38;;;;;;;;;;5113249;27;20061;-69
2022/05/22 01:06:26;;;;;;;12.60;6.93;;;;;;;;;;5109195;27;20040;-69
2022/05/22 01:08:52;;;;;;;11.40;6.82;;;;;;;;;;5115755;27;20044;-70
2022/05/22 01:11:27;;;;;;;13.10;6.25;;;;;;;;;;5115403;27;20486;-70
2022/05/22 01:13:56;;;;;;;8.82;6.50;;;;;;;;;;5107728;28;20035;-70
2022/05/22 01:16:22;;;;;;;8.88;6.53;;;;;;;;;;5106357;28;20043;-70
2022/05/22 01:18:55;;;;;;;12.18;5.63;;;;;;;;;;5106632;28;20075;-70
2022/05/22 01:21:28;;;;;;;12.23;6.72;;;;;;;;;;5110231;28;20040;-70
2022/05/22 01:23:55;;;;;;;7.40;5.70;;;;;;;;;;5104381;28;20040;-70
2022/05/22 01:26:22;;;;;;;9.68;6.50;;;;;;;;;;5105667;28;20046;-70
2022/05/22 01:28:48;;;;;;;11.70;6.13;;;;;;;;;;5114731;27;20032;-70
2022/05/22 01:31:14;;;;;;;17.42;8.55;;;;;;;;;;5110369;28;20058;-70
2022/05/22 01:33:40;;;;;;;12.68;8.02;;;;;;;;;;5112972;27;20493;-70
2022/05/22 01:36:07;;;;;;;24.85;15.00;;;;;;;;;;5110020;28;20477;-70
2022/05/22 01:38:34;;;;;;;20.23;12.40;;;;;;;;;;5108564;28;20077;-70
2022/05/22 01:41:00;;;;;;;21.75;13.23;;;;;;;;;;5109551;27;20097;-70
2022/05/22 01:43:26;;;;;;;24.02;15.90;;;;;;;;;;5118987;27;20050;-70
2022/05/22 01:45:54;;;;;;;26.73;17.13;;;;;;;;;;5111508;27;20062;-70
2022/05/22 01:48:21;;;;;;;16.45;10.52;;;;;;;;;;5114700;27;20039;-71
2022/05/22 01:50:47;;;;;;;13.23;7.50;;;;;;;;;;5116306;27;20040;-71
2022/05/22 01:53:14;;;;;;;9.77;7.57;;;;;;;;;;5101136;28;20553;-70
2022/05/22 01:55:41;;;;;;;13.77;7.22;;;;;;;;;;5114126;27;20088;-70
2022/05/22 01:58:07;;;;;;;10.38;5.80;;;;;;;;;;5115766;27;20055;-70
2022/05/22 02:00:34;;;;;;;9.50;6.13;;;;;;;;;;5117158;27;20043;-71
2022/05/22 02:03:01;;;;;;;11.30;6.30;;;;;;;;;;5112110;27;20042;-70
2022/05/22 02:05:27;;;;;;;9.70;5.95;;;;;;;;;;5117112;27;20132;-71
2022/05/22 02:10:38;;;;;;;13.55;6.65;;;;;;;;;;5107187;27;20051;-71
2022/05/22 02:13:05;;;;;;;12.40;6.13;;;;;;;;;;5112706;27;20619;-71
2022/05/22 02:15:31;;;;;;;8.05;5.93;;;;;;;;;;5115491;27;20039;-71
2022/05/22 02:17:58;;;;;;;12.60;7.55;;;;;;;;;;5098410;28;20066;-71
2022/05/22 02:20:24;;;;;;;12.05;6.03;;;;;;;;;;5116509;27;20079;-70
2022/05/22 02:22:52;;;;;;;11.23;7.30;;;;;;;;;;5120503;27;20192;-71
2022/05/22 02:25:22;;;;;;;16.95;11.32;;;;;;;;;;5112312;27;20542;-70
2022/05/22 02:27:48;;;;;;;18.15;12.05;;;;;;;;;;5108361;28;20043;-71
2022/05/22 02:30:17;;;;;;;17.92;10.70;;;;;;;;;;5110454;28;20369;-71
2022/05/22 02:32:44;;;;;;;17.63;9.57;;;;;;;;;;5115945;28;20043;-71
2022/05/22 02:35:11;;;;;;;15.60;8.73;;;;;;;;;;5105281;28;20062;-71
2022/05/22 02:37:44;;;;;;;12.07;8.18;;;;;;;;;;5109278;28;20477;-71
2022/05/22 02:40:11;;;;;;;15.60;7.47;;;;;;;;;;5112759;28;20066;-69
2022/05/22 02:42:44;;;;;;;15.43;8.25;;;;;;;;;;5107890;28;20039;-69
2022/05/22 02:45:12;;;;;;;11.20;7.93;;;;;;;;;;5102563;28;20071;-69
2022/05/22 02:47:38;;;;;;;11.45;7.65;;;;;;;;;;5108681;28;20401;-69
2022/05/22 02:50:05;;;;;;;15.98;7.93;;;;;;;;;;5118545;28;20110;-71
2022/05/22 02:52:31;;;;;;;14.52;7.07;;;;;;;;;;5112020;28;20405;-70
2022/05/22 02:54:57;;;;;;;13.82;7.13;;;;;;;;;;5075672;28;20058;-70
2022/05/22 02:57:25;;;;;;;14.85;8.10;;;;;;;;;;5100112;28;20065;-71
2022/05/22 02:59:52;;;;;;;11.75;7.00;;;;;;;;;;5115004;28;20378;-71
2022/05/22 03:02:18;;;;;;;11.77;7.68;;;;;;;;;;5112334;28;20049;-70
2022/05/22 03:04:45;;;;;;;13.50;8.48;;;;;;;;;;5116296;27;20464;-71
2022/05/22 03:07:12;;;;;;;13.13;7.57;;;;;;;;;;5115596;28;20035;-71
2022/05/22 03:09:40;;;;;;;11.25;6.75;;;;;;;;;;5108615;28;20139;-71
2022/05/22 03:12:12;;;;;;;12.48;7.43;;;;;;;;;;5097413;28;20488;-71
2022/05/22 03:14:42;;;;;;;12.65;7.38;;;;;;;;;;5106880;28;20092;-71
2022/05/22 03:17:08;;;;;;;13.68;7.60;;;;;;;;;;5100934;28;20082;-70
2022/05/22 03:19:34;;;;;;;11.82;8.50;;;;;;;;;;5109870;28;20071;-71
2022/05/22 03:22:00;;;;;;;10.75;7.63;;;;;;;;;;5111000;28;20068;-70
2022/05/22 03:24:26;;;;;;;15.43;7.40;;;;;;;;;;5099307;28;20047;-70
2022/05/22 03:26:53;;;;;;;10.90;7.05;;;;;;;;;;5104934;28;20055;-71
2022/05/22 03:29:19;;;;;;;13.38;7.65;;;;;;;;;;5111073;28;20046;-71
2022/05/22 03:31:45;;;;;;;10.10;7.28;;;;;;;;;;5102124;28;20074;-71
2022/05/22 03:34:11;;;;;;;15.82;8.13;;;;;;;;;;5119342;27;20561;-71
2022/05/22 03:36:40;;;;;;;11.05;7.38;;;;;;;;;;5097117;28;20473;-71
2022/05/22 03:39:07;;;;;;;12.48;8.43;;;;;;;;;;5116478;28;20100;-69
2022/05/22 03:41:35;;;;;;;13.90;7.68;;;;;;;;;;5107677;27;20090;-69
2022/05/22 03:44:01;;;;;;;13.80;8.23;;;;;;;;;;5108106;27;20040;-71
2022/05/22 03:46:27;;;;;;;14.65;8.68;;;;;;;;;;5101874;27;20047;-71
2022/05/22 03:48:53;;;;;;;16.42;8.70;;;;;;;;;;5112813;28;20044;-70
2022/05/22 03:51:19;;;;;;;14.55;10.00;;;;;;;;;;5103405;28;20614;-71
2022/05/22 03:53:45;;;;;;;22.98;8.65;;;;;;;;;;5110505;28;20050;-71
2022/05/22 03:56:13;;;;;;;13.38;8.98;;;;;;;;;;5113992;27;20123;-71
2022/05/22 03:58:39;;;;;;;15.38;9.57;;;;;;;;;;5107618;27;20516;-70
2022/05/22 04:01:07;;;;;;;17.25;8.95;;;;;;;;;;5114512;27;20074;-70
2022/05/22 04:03:37;;;;;;;13.32;8.07;;;;;;;;;;5114305;27;20032;-71
2022/05/22 04:06:05;;;;;;;15.85;9.32;;;;;;;;;;5111784;28;20078;-71
2022/05/22 04:08:32;;;;;;;12.68;9.13;;;;;;;;;;5121714;27;20451;-70
2022/05/22 04:11:04;;;;;;;14.20;8.43;;;;;;;;;;5114024;27;20051;-71
2022/05/22 04:13:31;;;;;;;16.95;10.38;;;;;;;;;;5113690;27;20076;-72
2022/05/22 04:15:57;;;;;;;20.20;9.43;;;;;;;;;;5111667;27;20931;-69
2022/05/22 04:18:25;;;;;;;16.10;9.75;;;;;;;;;;5119389;27;20710;-70
2022/05/22 04:20:51;;;;;;;13.75;8.35;;;;;;;;;;5107365;27;20535;-70
2022/05/22 04:26:03;;;;;;;20.17;8.45;;;;;;;;;;5092324;28;20079;-70
2022/05/22 04:28:30;;;;;;;22.27;10.02;;;;;;;;;;5105778;27;20044;-70
2022/05/22 04:30:56;;;;;;;13.50;8.50;;;;;;;;;;5107489;28;20043;-70
2022/05/22 04:33:23;;;;;;;13.07;8.38;;;;;;;;;;5095145;28;20487;-69
2022/05/22 04:35:49;;;;;;;17.85;8.93;;;;;;;;;;5110296;28;20035;-69
2022/05/22 04:38:16;;;;;;;12.55;8.95;;;;;;;;;;5103802;28;20040;-69
2022/05/22 04:40:42;;;;;;;12.35;8.57;;;;;;;;;;5111111;27;20077;-69
2022/05/22 04:43:09;;;;;;;18.05;8.75;;;;;;;;;;5116739;27;20040;-69
2022/05/22 04:45:39;;;;;;;16.60;9.90;;;;;;;;;;5107135;28;20063;-69
2022/05/22 04:48:05;;;;;;;20.90;7.72;;;;;;;;;;5112473;27;20397;-70
2022/05/22 04:50:32;;;;;;;14.15;8.10;;;;;;;;;;5122848;27;20043;-69
2022/05/22 04:52:59;;;;;;;14.15;7.57;;;;;;;;;;5116731;27;20047;-69
2022/05/22 04:55:25;;;;;;;12.32;8.27;;;;;;;;;;5113837;27;20036;-69
2022/05/22 04:57:51;;;;;;;17.45;8.32;;;;;;;;;;5116736;27;20032;-69
2022/05/22 05:00:18;;;;;;;14.63;9.13;;;;;;;;;;5106402;28;20047;-69
2022/05/22 05:02:44;;;;;;;14.73;7.82;;;;;;;;;;5104455;28;20051;-69
2022/05/22 05:05:10;;;;;;;15.90;8.52;;;;;;;;;;5118505;27;20096;-70
2022/05/22 05:07:40;;;;;;;12.02;8.68;;;;;;;;;;5117824;27;20067;-70
2022/05/22 05:10:07;;;;;;;15.90;9.00;;;;;;;;;;5117354;27;20111;-70
2022/05/22 05:12:36;;;;;;;15.35;8.45;;;;;;;;;;5112142;27;20083;-70
2022/05/22 05:15:03;;;;;;;15.00;9.32;;;;;;;;;;5102879;28;20040;-69
2022/05/22 05:17:29;;;;;;;15.20;8.88;;;;;;;;;;5103444;27;20509;-70
2022/05/22 05:19:56;;;;;;;18.98;9.48;;;;;;;;;;5089640;28;20048;-70
2022/05/22 05:22:22;;;;;;;14.10;9.02;;;;;;;;;;5099910;28;20409;-70
2022/05/22 05:24:48;;;;;;;13.95;8.45;;;;;;;;;;5102742;27;20050;-70
2022/05/22 05:27:14;;;;;;;15.60;8.13;;;;;;;;;;5098515;27;20039;-70
2022/05/22 05:29:40;;;;;;;13.52;8.40;;;;;;;;;;5082318;28;20046;-70
2022/05/22 05:32:07;;;;;;;13.90;7.25;;;;;;;;;;5101734;27;20531;-70
2022/05/22 05:34:33;;;;;;;14.60;8.57;;;;;;;;;;5099971;27;20075;-70
2022/05/22 05:36:59;;;;;;;19.63;7.75;;;;;;;;;;5099797;27;20046;-70
2022/05/22 05:39:27;;;;;;;13.98;8.43;;;;;;;;;;5102032;27;20048;-70
2022/05/22 05:41:56;;;;;;;14.15;7.97;;;;;;;;;;5100174;27;21339;-70
2022/05/22 05:44:23;;;;;;;19.48;8.95;;;;;;;;;;5085344;28;20105;-70
2022/05/22 05:46:50;;;;;;;21.27;9.70;;;;;;;;;;5099379;27;20074;-70
2022/05/22 05:49:16;;;;;;;16.25;9.00;;;;;;;;;;5103993;27;20114;-70
2022/05/22 05:51:42;;;;;;;15.65;8.68;;;;;;;;;;5098560;28;20870;-70
2022/05/22 05:54:08;;;;;;;18.15;8.48;;;;;;;;;;5096849;27;20091;-71
2022/05/22 05:56:41;;;;;;;12.13;7.63;;;;;;;;;;5091508;28;20054;-70
2022/05/22 05:59:07;;;;;;;12.70;7.72;;;;;;;;;;5098624;27;20405;-70
2022/05/22 06:01:34;;;;;;;17.00;6.80;;;;;;;;;;5107362;27;20047;-70
2022/05/22 06:04:01;;;;;;;12.07;8.43;;;;;;;;;;5099369;27;20515;-70
2022/05/22 06:06:27;;;;;;;11.57;6.40;;;;;;;;;;5105030;27;20064;-71
2022/05/22 06:08:53;;;;;;;12.48;7.78;;;;;;;;;;5106119;27;20047;-70
2022/05/22 06:11:20;;;;;;;16.65;8.20;;;;;;;;;;5105444;28;20035;-70
2022/05/22 06:13:46;;;;;;;13.52;7.93;;;;;;;;;;5101907;27;20074;-71
2022/05/22 06:16:12;;;;;;;12.32;7.47;;;;;;;;;;5098558;28;20056;-70
2022/05/22 06:18:38;;;;;;;10.75;6.78;;;;;;;;;;5102146;27;20027;-69
2022/05/22 06:21:09;;;;;;;14.57;7.70;;;;;;;;;;5085428;28;20304;-70
2022/05/22 06:23:35;;;;;;;13.10;6.68;;;;;;;;;;5101503;27;20500;-70
2022/05/22 06:26:01;;;;;;;15.60;8.00;;;;;;;;;;5097281;28;20121;-70
2022/05/22 06:28:27;;;;;;;10.88;6.45;;;;;;;;;;5103902;28;20046;-69
2022/05/22 06:30:54;;;;;;;11.35;5.70;;;;;;;;;;5097711;28;20061;-70
2022/05/22 06:33:20;;;;;;;14.75;6.15;;;;;;;;;;5100802;28;20406;-70
2022/05/22 06:35:47;;;;;;;15.63;6.43;;;;;;;;;;5077131;28;20101;-70
2022/05/22 06:39:49;;;;;;;10.38;6.13;;;;;;;;;;5106867;28;20075;-70
2022/05/22 06:40:59;;;;;;;15.35;6.10;;;;;;;;;;5101283;28;20202;-70
2022/05/22 06:43:26;;;;;;;12.73;5.75;;;;;;;;;;5101357;28;20051;-70
2022/05/22 06:45:52;;;;;;;8.82;5.45;;;;;;;;;;5105394;28;20052;-70
2022/05/22 06:48:18;;;;;;;10.30;5.57;;;;;;;;;;5106353;28;20043;-71
2022/05/22 06:50:44;;;;;;;10.07;5.38;;;;;;;;;;5104375;28;20549;-70
2022/05/22 06:53:11;;;;;;;8.07;4.80;;;;;;;;;;5105137;28;20044;-70
2022/05/22 06:55:37;;;;;;;8.27;5.35;;;;;;;;;;5103203;28;20481;-70
2022/05/22 06:58:03;;;;;;;8.20;5.03;;;;;;;;;;5111463;27;20154;-69
2022/05/22 07:00:30;;;;;;;15.30;5.10;;;;;;;;;;5103219;28;20627;-70
2022/05/22 07:02:56;;;;;;;18.13;5.28;;;;;;;;;;5105875;28;20063;-70
2022/05/22 07:05:22;;;;;;;10.60;4.20;;;;;;;;;;5105034;28;20043;-70
2022/05/22 07:07:48;;;;;;;11.63;5.25;;;;;;;;;;5103401;28;20087;-70
2022/05/22 07:10:14;;;;;;;11.00;4.90;;;;;;;;;;5105825;28;20295;-70
2022/05/22 07:12:41;;;;;;;6.20;3.85;;;;;;;;;;5104522;28;20050;-70
2022/05/22 07:15:08;;;;;;;6.90;3.72;;;;;;;;;;5105674;28;20124;-70
2022/05/22 07:17:34;;;;;;;7.15;3.95;;;;;;;;;;5110062;28;20031;-70
2022/05/22 07:20:00;;;;;;;15.27;3.80;;;;;;;;;;5108490;28;20046;-70
2022/05/22 07:22:26;;;;;;;6.60;3.00;;;;;;;;;;5109915;28;20722;-70
2022/05/22 07:24:53;;;;;;;13.25;3.90;;;;;;;;;;5107668;28;20054;-70
2022/05/22 07:27:19;;;;;;;7.38;3.53;;;;;;;;;;5106842;28;20343;-70
2022/05/22 07:29:45;;;;;;;6.43;3.25;;;;;;;;;;5108592;28;20064;-71
2022/05/22 07:32:11;;;;;;;11.98;4.45;;;;;;;;;;5113582;27;20430;-70
2022/05/22 07:34:39;;;;;;;9.05;3.88;;;;;;;;;;5103985;28;20044;-70
2022/05/22 07:37:06;;;;;;;8.43;4.05;;;;;;;;;;5101289;27;20297;-70
2022/05/22 07:39:33;;;;;;;9.15;4.53;;;;;;;;;;5102977;28;20039;-70
2022/05/22 07:41:59;;;;;;;10.75;4.90;;;;;;;;;;5110304;27;20126;-71
2022/05/22 07:44:25;;;;;;;9.32;4.85;;;;;;;;;;5106774;28;20516;-70
2022/05/22 07:46:51;;;;;;;8.07;4.30;;;;;;;;;;5114868;27;20377;-70
2022/05/22 07:52:07;;;;;;;7.65;5.18;;;;;;;;;;5102545;27;20035;-70
2022/05/22 07:54:34;;;;;;;8.00;3.95;;;;;;;;;;5107016;27;20086;-70
2022/05/22 07:57:00;;;;;;;11.25;3.75;;;;;;;;;;5102965;28;20109;-70
2022/05/22 07:59:27;;;;;;;9.73;4.38;;;;;;;;;;5091059;28;20059;-70
2022/05/22 08:01:54;;;;;;;11.13;4.05;;;;;;;;;;5111163;27;20567;-70
2022/05/22 08:04:20;;;;;;;10.68;3.72;;;;;;;;;;5109035;28;20504;-70
2022/05/22 08:06:47;;;;;;;13.07;4.55;;;;;;;;;;5113344;27;20075;-70
2022/05/22 08:09:13;;;;;;;7.28;3.28;;;;;;;;;;5103166;28;20092;-70
2022/05/22 08:11:39;;;;;;;10.40;3.15;;;;;;;;;;5103853;28;20416;-70
2022/05/22 08:14:06;;;;;;;7.95;4.05;;;;;;;;;;5101775;28;20048;-71
2022/05/22 08:16:32;;;;;;;7.95;3.25;;;;;;;;;;5104215;27;20032;-70
2022/05/22 08:18:58;;;;;;;4.95;3.22;;;;;;;;;;5080649;27;20042;-70
2022/05/22 08:21:24;;;;;;;6.10;3.25;;;;;;;;;;5115925;27;20040;-70
2022/05/22 08:23:50;;;;;;;11.02;3.80;;;;;;;;;;5089255;28;20363;-70
2022/05/22 08:26:16;;;;;;;6.68;3.17;;;;;;;;;;5109028;27;20039;-70
2022/05/22 08:28:42;;;;;;;6.35;3.20;;;;;;;;;;5106632;27;20031;-70
2022/05/22 08:31:10;;;;;;;8.95;3.78;;;;;;;;;;5107035;27;20039;-70
2022/05/22 08:33:37;;;;;;;7.80;3.75;;;;;;;;;;5106783;28;20043;-70
2022/05/22 08:36:04;;;;;;;8.30;3.55;;;;;;;;;;5098871;27;20048;-71
2022/05/22 08:38:30;;;;;;;11.07;3.83;;;;;;;;;;5114118;27;20070;-70
2022/05/22 08:41:08;;;;;;;7.07;2.78;;;;;;;;;;5098244;27;20048;-70
2022/05/22 08:43:37;;;;;;;9.13;3.78;;;;;;;;;;5106216;28;20086;-70
2022/05/22 08:46:08;;;;;;;7.05;3.05;;;;;;;;;;5107683;27;20507;-70
2022/05/22 08:48:34;;;;;;;9.85;3.05;;;;;;;;;;5103336;28;20410;-70
2022/05/22 08:51:01;;;;;;;6.55;2.58;;;;;;;;;;5085251;28;20126;-70
2022/05/22 08:53:37;;;;;;;9.10;3.60;;;;;;;;;;5111013;27;20160;-70
2022/05/22 08:59:03;;;;;;;5.97;2.90;;;;;;;;;;5102473;27;20544;-70
2022/05/22 09:01:48;;;;;;;7.93;2.97;;;;;;;;;;5105759;28;20048;-71
2022/05/22 09:04:47;;;;;;;9.98;4.15;;;;;;;;;;5110572;27;20042;-71
2022/05/22 09:07:18;;;;;;;5.53;3.28;;;;;;;;;;5097029;28;20118;-71
2022/05/22 09:09:46;;;;;;;5.85;3.88;;;;;;;;;;5104098;27;20051;-71
2022/05/22 09:12:31;;;;;;;8.65;3.30;;;;;;;;;;5103146;27;20048;-70
2022/05/22 09:15:15;;;;;;;6.22;3.58;;;;;;;;;;5104497;28;20046;-70
2022/05/22 09:17:45;;;;;;;8.80;2.90;;;;;;;;;;5104352;28;20063;-70
2022/05/22 09:20:13;;;;;;;5.72;2.83;;;;;;;;;;5109580;28;20043;-70
2022/05/22 09:22:39;;;;;;;8.23;3.72;;;;;;;;;;5101018;27;20077;-71
2022/05/22 09:25:05;;;;;;;10.15;3.65;;;;;;;;;;5105077;27;20047;-71
2022/05/22 09:27:43;;;;;;;6.28;3.50;;;;;;;;;;5100617;27;20035;-70
2022/05/22 09:30:22;;;;;;;5.57;3.03;;;;;;;;;;5108439;27;20065;-71
2022/05/22 09:33:06;;;;;;;8.63;3.72;;;;;;;;;;5106189;27;20092;-70
2022/05/22 09:35:32;;;;;;;7.97;3.92;;;;;;;;;;5098754;27;20519;-70
2022/05/22 09:37:59;;;;;;;7.75;4.25;;;;;;;;;;5106173;27;20036;-71
2022/05/22 09:40:25;;;;;;;13.30;4.75;;;;;;;;;;5114494;27;20453;-71
2022/05/22 09:43:17;;;;;;;9.45;3.85;;;;;;;;;;5100470;27;20032;-71
2022/05/22 09:45:55;;;;;;;11.07;4.38;;;;;;;;;;5093242;27;20043;-70
2022/05/22 09:48:29;;;;;;;8.27;3.22;;;;;;;;;;5100748;27;20078;-71
2022/05/22 09:51:13;;;;;;;12.25;4.13;;;;;;;;;;5109455;27;20039;-71
2022/05/22 09:53:45;;;;;;;10.30;4.93;;;;;;;;;;5116185;27;20050;-71
2022/05/22 09:56:26;;;;;;;9.67;4.57;;;;;;;;;;5107567;28;20055;-71
2022/05/22 09:59:02;;;;;;;8.27;4.60;;;;;;;;;;5086805;28;20048;-71
2022/05/22 10:01:32;;;;;;;7.45;3.63;;;;;;;;;;5103653;27;20078;-71
2022/05/22 10:03:58;;;;;;;12.25;4.00;;;;;;;;;;5104909;27;20039;-71
2022/05/22 10:06:34;;;;;;;8.27;3.30;;;;;;;;;;5094475;27;20067;-71
2022/05/22 10:09:18;;;;;;;12.70;4.05;;;;;;;;;;5091977;28;20831;-71
2022/05/22 10:12:01;;;;;;;5.20;2.83;;;;;;;;;;5091184;27;20132;-71
2022/05/22 10:14:28;;;;;;;11.98;3.72;;;;;;;;;;5076071;27;20032;-71
2022/05/22 10:17:00;;;;;;;6.35;3.05;;;;;;;;;;5093938;28;20038;-71
2022/05/22 10:19:29;;;;;;;5.53;3.20;;;;;;;;;;5094555;27;20032;-71
2022/05/22 10:22:04;;;;;;;6.93;2.95;;;;;;;;;;5076412;28;20566;-72
2022/05/22 10:24:36;;;;;;;6.57;3.58;;;;;;;;;;5095645;28;20032;-72
2022/05/22 10:27:09;;;;;;;7.88;3.15;;;;;;;;;;5091518;28;20031;-71
2022/05/22 10:29:41;;;;;;;4.30;2.67;;;;;;;;;;5093610;28;20043;-72
2022/05/22 10:32:23;;;;;;;8.82;2.80;;;;;;;;;;5095295;28;20043;-71
2022/05/22 10:34:52;;;;;;;10.45;3.33;;;;;;;;;;5094059;28;20400;-72
2022/05/22 10:37:23;;;;;;;9.18;2.97;;;;;;;;;;5091762;28;20040;-71
2022/05/22 10:39:49;;;;;;;5.60;2.53;;;;;;;;;;5100881;28;20040;-71
2022/05/22 10:42:52;;;;;;;4.72;2.80;;;;;;;;;;5106875;28;20043;-72
2022/05/22 10:45:19;;;;;;;8.63;3.38;;;;;;;;;;5076436;28;20131;-71
2022/05/22 10:47:46;;;;;;;9.85;3.03;;;;;;;;;;5108309;28;20401;-71
2022/05/22 10:50:17;;;;;;;10.43;3.72;;;;;;;;;;5106705;28;20043;-72
2022/05/22 10:52:44;;;;;;;7.78;3.83;;;;;;;;;;5111242;28;20439;-71
2022/05/22 10:55:22;;;;;;;5.75;3.08;;;;;;;;;;5107420;28;20270;-71
2022/05/22 10:57:56;;;;;;;6.38;3.33;;;;;;;;;;5111508;27;20039;-71
2022/05/22 11:00:23;;;;;;;9.45;3.72;;;;;;;;;;5115791;27;20052;-71
2022/05/22 11:02:49;;;;;;;9.93;3.22;;;;;;;;;;5117934;27;20058;-71
2022/05/22 11:05:34;;;;;;;12.98;3.70;;;;;;;;;;5114765;27;20613;-71
2022/05/22 11:08:00;;;;;;;6.57;2.65;;;;;;;;;;5107574;28;20039;-71
2022/05/22 11:10:33;;;;;;;4.75;2.45;;;;;;;;;;5112149;28;20169;-71
2022/05/22 11:13:01;;;;;;;5.85;2.72;;;;;;;;;;5109244;28;20044;-71
2022/05/22 11:15:29;;;;;;;6.47;3.00;;;;;;;;;;5112097;28;20032;-71
2022/05/22 11:18:02;;;;;;;8.65;4.05;;;;;;;;;;5113170;28;20039;-71
2022/05/22 11:20:28;;;;;;;8.20;2.78;;;;;;;;;;5101965;28;20556;-71
2022/05/22 11:23:23;;;;;;;6.55;2.22;;;;;;;;;;5118475;27;20071;-71
2022/05/22 11:26:05;;;;;;;5.07;2.50;;;;;;;;;;5056772;28;20040;-71
2022/05/22 11:28:44;;;;;;;4.40;2.40;;;;;;;;;;5107274;27;20077;-71
2022/05/22 11:31:27;;;;;;;5.10;2.35;;;;;;;;;;5105658;27;20057;-71
2022/05/22 11:34:12;;;;;;;3.95;2.28;;;;;;;;;;5095473;27;20036;-71
2022/05/22 11:36:49;;;;;;;5.70;2.30;;;;;;;;;;5101724;27;20036;-71
2022/05/22 11:39:33;;;;;;;5.85;2.95;;;;;;;;;;5086476;27;20035;-71
2022/05/22 11:42:20;;;;;;;10.13;2.67;;;;;;;;;;5096961;28;20051;-71
2022/05/22 11:44:58;;;;;;;4.65;2.33;;;;;;;;;;5090152;27;20177;-71
2022/05/22 11:47:27;;;;;;;7.93;2.47;;;;;;;;;;5102899;27;20031;-71
2022/05/22 11:50:12;;;;;;;6.97;2.45;;;;;;;;;;5104242;27;20071;-71
2022/05/22 11:52:56;;;;;;;5.93;2.38;;;;;;;;;;5100317;27;20066;-71
2022/05/22 11:55:35;;;;;;;5.47;2.42;;;;;;;;;;5101385;27;20039;-71
2022/05/22 11:58:14;;;;;;;5.95;2.00;;;;;;;;;;5087382;28;20490;-71
2022/05/22 12:00:43;;;;;;;4.47;2.70;;;;;;;;;;5098156;27;20075;-71
2022/05/22 12:03:12;;;;;;;5.10;2.50;;;;;;;;;;5113061;27;20523;-71
2022/05/22 12:05:54;;;;;;;6.30;2.58;;;;;;;;;;5119554;27;20039;-71
2022/05/22 12:08:24;;;;;;;5.32;1.92;;;;;;;;;;5113363;27;20109;-71
2022/05/22 12:10:54;;;;;;;7.40;2.63;;;;;;;;;;5110684;27;20142;-71
2022/05/22 12:13:31;;;;;;;5.00;2.28;;;;;;;;;;5118798;27;20050;-71
2022/05/22 12:16:09;;;;;;;8.55;2.78;;;;;;;;;;5119033;27;20043;-71
2022/05/22 12:18:53;;;;;;;5.10;2.30;;;;;;;;;;5100239;27;20047;-71
2022/05/22 12:21:32;;;;;;;6.07;2.95;;;;;;;;;;5092288;28;20031;-72
2022/05/22 12:24:01;;;;;;;5.07;2.08;;;;;;;;;;5091884;27;20517;-71
2022/05/22 12:26:30;;;;;;;6.20;2.22;;;;;;;;;;5089974;27;20040;-72
2022/05/22 12:28:56;;;;;;;5.82;2.00;;;;;;;;;;5097569;27;20687;-72
2022/05/22 12:31:32;;;;;;;7.03;2.65;;;;;;;;;;5076228;28;20028;-71
2022/05/22 12:34:09;;;;;;;7.15;2.53;;;;;;;;;;5110304;27;20076;-71
2022/05/22 12:36:36;;;;;;;6.50;2.50;;;;;;;;;;5111785;27;20402;-71
2022/05/22 12:39:12;;;;;;;4.95;2.28;;;;;;;;;;5114501;27;20078;-71
2022/05/22 12:41:41;;;;;;;4.82;2.00;;;;;;;;;;5111790;27;20511;-71
2022/05/22 12:44:07;;;;;;;6.93;2.47;;;;;;;;;;5106861;27;20046;-72
2022/05/22 12:46:34;;;;;;;4.95;2.00;;;;;;;;;;5116059;27;20404;-71
2022/05/22 12:49:09;;;;;;;6.53;2.50;;;;;;;;;;5093368;28;20132;-72
2022/05/22 12:51:37;;;;;;;3.67;1.90;;;;;;;;;;5110769;28;20522;-71
2022/05/22 12:54:09;;;;;;;4.38;1.67;;;;;;;;;;5105405;27;20071;-71
2022/05/22 12:56:35;;;;;;;6.63;2.33;;;;;;;;;;5091096;28;20126;-71
2022/05/22 12:59:03;;;;;;;4.05;2.03;;;;;;;;;;5110208;28;20409;-71
2022/05/22 13:01:37;;;;;;;4.75;2.47;;;;;;;;;;5109417;28;20058;-71
2022/05/22 13:04:16;;;;;;;3.67;1.92;;;;;;;;;;5108851;28;20052;-72
2022/05/22 13:06:48;;;;;;;3.75;2.15;;;;;;;;;;5095497;27;20054;-71
2022/05/22 13:09:23;;;;;;;4.18;2.22;;;;;;;;;;5113772;27;20047;-71
2022/05/22 13:11:52;;;;;;;5.85;2.60;;;;;;;;;;5095871;27;20047;-71
2022/05/22 13:14:33;;;;;;;3.78;2.08;;;;;;;;;;5096782;28;20328;-71
2022/05/22 13:16:59;;;;;;;5.07;1.70;;;;;;;;;;5113321;27;20062;-71
2022/05/22 13:19:27;;;;;;;5.03;1.60;;;;;;;;;;5105853;27;20050;-72
2022/05/22 13:21:53;;;;;;;5.78;1.88;;;;;;;;;;5113409;27;20055;-71
2022/05/22 13:24:23;;;;;;;6.57;2.15;;;;;;;;;;5106130;27;20055;-71
2022/05/22 13:27:18;;;;;;;3.88;1.85;;;;;;;;;;5099258;27;20040;-72
2022/05/22 13:30:04;;;;;;;7.25;2.95;;;;;;;;;;5088596;28;20055;-71
2022/05/22 13:32:34;;;;;;;3.92;1.60;;;;;;;;;;5106905;27;20047;-72
2022/05/22 13:35:02;;;;;;;4.25;1.70;;;;;;;;;;5116159;27;20039;-72
2022/05/22 13:37:33;;;;;;;7.95;2.50;;;;;;;;;;5081629;27;20316;-71
2022/05/22 13:40:02;;;;;;;7.10;2.25;;;;;;;;;;5108254;28;20047;-71
2022/05/22 13:42:44;;;;;;;3.72;1.88;;;;;;;;;;5100651;27;20145;-71
2022/05/22 13:45:29;;;;;;;3.33;2.30;;;;;;;;;;5103263;28;20587;-72
2022/05/22 13:48:14;;;;;;;5.03;2.45;;;;;;;;;;5108114;28;20308;-71
2022/05/22 13:53:37;;;;;;;6.00;2.30;;;;;;;;;;5103193;28;20067;-72
2022/05/22 13:56:04;;;;;;;4.65;2.50;;;;;;;;;;5108082;28;20058;-71
2022/05/22 13:58:35;;;;;;;5.18;2.28;;;;;;;;;;5098302;27;20048;-72
2022/05/22 14:01:04;;;;;;;7.55;2.88;;;;;;;;;;5119787;27;20135;-72
2022/05/22 14:03:35;;;;;;;3.33;1.85;;;;;;;;;;5105720;27;20054;-72
2022/05/22 14:06:03;;;;;;;3.20;2.17;;;;;;;;;;5108574;28;20043;-72
2022/05/22 14:08:34;;;;;;;8.05;2.67;;;;;;;;;;5106996;27;20083;-72
2022/05/22 14:11:12;;;;;;;2.78;1.90;;;;;;;;;;5119855;27;20517;-73
2022/05/22 14:13:48;;;;;;;4.35;1.73;;;;;;;;;;5114903;27;20058;-72
2022/05/22 14:16:20;;;;;;;7.03;2.40;;;;;;;;;;5109090;28;20040;-72
2022/05/22 14:18:56;;;;;;;4.70;2.53;;;;;;;;;;5108088;28;20108;-71
2022/05/22 14:21:23;;;;;;;10.23;2.67;;;;;;;;;;5105730;27;20943;-71
2022/05/22 14:26:34;;;;;;;5.35;2.20;;;;;;;;;;5100971;28;20043;-72
2022/05/22 14:29:01;;;;;;;5.90;2.45;;;;;;;;;;5090355;28;20043;-71
2022/05/22 14:31:30;;;;;;;5.18;2.10;;;;;;;;;;5101231;28;20531;-72
2022/05/22 14:33:58;;;;;;;5.60;2.15;;;;;;;;;;5105646;28;20047;-72
2022/05/22 14:36:25;;;;;;;5.07;2.33;;;;;;;;;;5120623;27;20127;-71
2022/05/22 14:38:51;;;;;;;7.20;2.78;;;;;;;;;;5115280;28;21150;-72
2022/05/22 14:41:22;;;;;;;5.68;2.22;;;;;;;;;;5108053;28;20073;-71
2022/05/22 14:43:52;;;;;;;4.97;2.15;;;;;;;;;;5105757;28;20720;-72
2022/05/22 14:46:27;;;;;;;4.80;2.40;;;;;;;;;;5104587;28;20125;-72
2022/05/22 14:48:54;;;;;;;3.88;2.28;;;;;;;;;;5116394;27;20067;-72
2022/05/22 14:51:32;;;;;;;5.57;2.22;;;;;;;;;;5115208;28;20044;-72
2022/05/22 14:54:07;;;;;;;6.35;2.97;;;;;;;;;;5101224;28;20556;-72
2022/05/22 14:56:36;;;;;;;5.45;1.90;;;;;;;;;;5106971;28;20433;-72
2022/05/22 14:59:07;;;;;;;6.18;2.55;;;;;;;;;;5107583;28;20058;-72
2022/05/22 15:01:33;;;;;;;5.00;1.90;;;;;;;;;;5110019;28;20039;-72
2022/05/22 15:04:02;;;;;;;2.38;1.63;;;;;;;;;;5123490;28;20153;-72
2022/05/22 15:06:32;;;;;;;6.93;1.65;;;;;;;;;;5115538;28;20035;-72